Paramount Hamilton — 2CWB2 — position and weather

sailwx.info

Track history (hours):
 
Tides and Currents Weather Stations Pressure Air Temp Water Temp Dewpoint Dewpoint Depression Visibility Wind Speed Wind Dir Waves Ship Positions

Paramount Hamilton

Last reported at 2015-Jul-01 15:31 UTC. Time now 2015-Jul-02 05:17 UTC.
Position N 38°28' W 008°48'.

Length 250 m; draft 7 m.

Type: Tanker. MMSI: 235076274.

Date/timePositionNaut miles runAvg speedWind from/ knotsBaromVisibWave heightAir tempDewpointWater temp
2015-Jul-01 15:31N 38°28' W 008°48'0 0.0
2015-Jul-01 14:31N 38°28' W 008°48'3 3.1
2015-Jul-01 13:33N 38°29' W 008°52'8 8.2
2015-Jul-01 12:33N 38°25' W 009°01'5 4.7
2015-Jul-01 11:33N 38°21' W 009°05'9 9.4
2015-Jul-01 10:33N 38°14' W 009°13'1110.9
2015-Jul-01 09:33N 38°08' W 009°25'1212.2
2015-Jul-01 08:34N 38°03' W 009°38'1313.2
2015-Jul-01 07:33N 37°57' W 009°53'1713.3
2015-Jul-01 06:15N 37°49' W 010°13'3 3.6
2015-Jul-01 05:29N 37°47' W 010°15'1 1.2
2015-Jul-01 04:33N 37°48' W 010°15'1 1.3
2015-Jul-01 03:33N 37°49' W 010°14'1 1.0
2015-Jul-01 02:32N 37°50' W 010°14'1 1.1
2015-Jul-01 01:33N 37°51' W 010°14'1 1.1
2015-Jul-01 00:33N 37°52' W 010°14'1 0.9
2015-Jun-30 23:33N 37°53' W 010°15'1 1.1
2015-Jun-30 22:33N 37°53' W 010°16'1 0.9
2015-Jun-30 21:33N 37°52' W 010°17'3 2.9
2015-Jun-30 20:33N 37°51' W 010°14'1 0.8
2015-Jun-30 19:34N 37°52' W 010°13'2 1.9
2015-Jun-30 18:33N 37°50' W 010°13'2 1.7
2015-Jun-30 17:33N 37°48' W 010°14'3 2.9
2015-Jun-30 16:33N 37°46' W 010°15'1211.6
2015-Jun-30 15:32N 37°36' W 010°24'1212.6
2015-Jun-30 14:33N 37°29' W 010°37'1313.2
2015-Jun-30 13:32N 37°39' W 010°47'4 4.2
2015-Jun-30 12:32N 37°42' W 010°51'1110.8
2015-Jun-30 11:33N 37°34' W 010°43'1110.6
2015-Jun-30 10:33N 37°26' W 010°34'1110.5
2015-Jun-30 09:34N 37°18' W 010°25'10 9.9
2015-Jun-30 08:33N 37°11' W 010°17'2 1.5
2015-Jun-30 07:34N 37°10' W 010°15'2 1.6
2015-Jun-30 06:34N 37°09' W 010°14'2 1.6
2015-Jun-30 05:34N 37°10' W 010°14'3 2.7
2015-Jun-30 04:33N 37°12' W 010°17'3 3.0
2015-Jun-30 03:33N 37°15' W 010°19'1 1.3
2015-Jun-30 02:34N 37°14' W 010°18'1 0.5
2015-Jun-30 01:33N 37°14' W 010°18'1 1.3
2015-Jun-30 00:33N 37°14' W 010°19'1 0.9
2015-Jun-29 23:33N 37°15' W 010°20'1 0.6
2015-Jun-29 22:34N 37°15' W 010°19'7 6.9
2015-Jun-29 21:33N 37°14' W 010°11'1413.7
2015-Jun-29 20:34N 37°28' W 010°10'3 2.7
2015-Jun-29 19:33N 37°31' W 010°10'2 2.2
2015-Jun-29 18:34N 37°33' W 010°10'2 2.3
2015-Jun-29 17:34N 37°35' W 010°10'0 0.3
2015-Jun-29 16:34N 37°35' W 010°10'5 4.6
2015-Jun-29 15:33N 37°31' W 010°09'1 1.4
2015-Jun-29 14:33N 37°32' W 010°09'1 0.9
2015-Jun-29 13:33N 37°31' W 010°09'1 0.9
2015-Jun-29 12:34N 37°31' W 010°08'3 2.6
2015-Jun-29 11:33N 37°33' W 010°09'3 2.6
2015-Jun-29 10:33N 37°36' W 010°10'2 2.1
2015-Jun-29 09:33N 37°38' W 010°10'1 0.9
2015-Jun-29 08:34N 37°37' W 010°11'1 1.0
2015-Jun-29 07:33N 37°37' W 010°10'1111.3
2015-Jun-29 06:33N 37°26' W 010°07'1211.7
2015-Jun-29 05:33N 37°14' W 010°03'1211.8
2015-Jun-29 04:34N 37°03' W 009°59'1211.6
2015-Jun-29 03:34N 36°52' W 009°56'1211.5
2015-Jun-29 02:34N 36°41' W 009°52'1111.4
2015-Jun-29 01:34N 36°30' W 009°48'1110.6
2015-Jun-29 00:34N 36°20' W 009°43'1212.5
2015-Jun-28 23:34N 36°18' W 009°28'1312.5
2015-Jun-28 22:34N 36°16' W 009°12'1312.6
2015-Jun-28 21:34N 36°14' W 008°57'1312.5
2015-Jun-28 20:33N 36°13' W 008°42'2612.3
2015-Jun-28 18:25N 36°09' W 008°09'1112.2
2015-Jun-28 17:33N 36°07' W 007°56'1212.3
2015-Jun-28 16:33N 36°06' W 007°41'1312.5
2015-Jun-28 15:33N 36°04' W 007°26'1412.8
2015-Jun-28 14:30N 36°02' W 007°09'1212.8
2015-Jun-28 13:34N 36°00' W 006°55'1212.3
2015-Jun-28 12:33N 36°01' W 006°39'1312.6
2015-Jun-28 11:33N 35°58' W 006°24'1912.8
2015-Jun-28 10:07N 35°58' W 006°01'813.6
2015-Jun-28 09:30N 35°58' W 005°51'1313.4
2015-Jun-28 08:32N 35°58' W 005°35'1111.8
2015-Jun-28 07:33N 36°01' W 005°22'3912.1
2015-Jun-28 04:18N 36°08' W 004°34'5812.0
2015-Jun-27 23:27N 36°17' W 003°22'1213.0
2015-Jun-27 22:33N 36°19' W 003°08'1212.5
2015-Jun-27 21:33N 36°21' W 002°53'1312.7
2015-Jun-27 20:33N 36°23' W 002°37'1713.3
2015-Jun-27 19:16N 36°26' W 002°16'912.7
2015-Jun-27 18:33N 36°30' W 002°06'1313.3
2015-Jun-27 17:33N 36°40' W 001°56'1313.2
2015-Jun-27 16:33N 36°50' W 001°45'1313.1
2015-Jun-27 15:33N 37°00' W 001°34'1313.2
2015-Jun-27 14:33N 37°11' W 001°24'1313.0
2015-Jun-27 13:33N 37°21' W 001°14'1312.9
2015-Jun-27 12:33N 37°30' W 001°03'5 0.2
2015-Jun-26 08:17N 37°34' W 000°58'1 2.0
2015-Jun-26 07:33N 37°34' W 001°00'3 2.8
2015-Jun-26 06:34N 37°31' W 001°02'1110.4
2015-Jun-26 05:32N 37°23' W 001°10'1612.0
2015-Jun-26 04:13N 37°10' W 001°23'2112.4
2015-Jun-26 02:33N 36°54' W 001°39'4012.0
2015-Jun-25 23:15N 36°23' W 002°10'2312.0
2015-Jun-25 21:18N 36°19' W 002°38'912.2
2015-Jun-25 20:33N 36°17' W 002°49'2612.8
2015-Jun-25 18:33N 36°13' W 003°20'8713.6
2015-Jun-25 12:08N 36°01' W 005°08'814.0
2015-Jun-25 11:33N 35°60' W 005°18'  
Track history (hours):
 
Tides and Currents Weather Stations Pressure Air Temp Water Temp Dewpoint Dewpoint Depression Visibility Wind Speed Wind Dir Waves Ship Positions

Paramount Hamilton

Last reported at 2015-Jul-01 15:31 UTC. Time now 2015-Jul-02 05:17 UTC.
Position N 38°28' W 008°48'.

Length 250 m; draft 7 m.

Type: Tanker. MMSI: 235076274.

Date/timePositionNaut miles runAvg speedWind from/ knotsBaromVisibWave heightAir tempDewpointWater temp
2015-Jul-01 15:31N 38°28' W 008°48'0 0.0
2015-Jul-01 14:31N 38°28' W 008°48'3 3.1
2015-Jul-01 13:33N 38°29' W 008°52'8 8.2
2015-Jul-01 12:33N 38°25' W 009°01'5 4.7
2015-Jul-01 11:33N 38°21' W 009°05'9 9.4
2015-Jul-01 10:33N 38°14' W 009°13'1110.9
2015-Jul-01 09:33N 38°08' W 009°25'1212.2
2015-Jul-01 08:34N 38°03' W 009°38'1313.2
2015-Jul-01 07:33N 37°57' W 009°53'1713.3
2015-Jul-01 06:15N 37°49' W 010°13'3 3.6
2015-Jul-01 05:29N 37°47' W 010°15'1 1.2
2015-Jul-01 04:33N 37°48' W 010°15'1 1.3
2015-Jul-01 03:33N 37°49' W 010°14'1 1.0
2015-Jul-01 02:32N 37°50' W 010°14'1 1.1
2015-Jul-01 01:33N 37°51' W 010°14'1 1.1
2015-Jul-01 00:33N 37°52' W 010°14'1 0.9
2015-Jun-30 23:33N 37°53' W 010°15'1 1.1
2015-Jun-30 22:33N 37°53' W 010°16'1 0.9
2015-Jun-30 21:33N 37°52' W 010°17'3 2.9
2015-Jun-30 20:33N 37°51' W 010°14'1 0.8
2015-Jun-30 19:34N 37°52' W 010°13'2 1.9
2015-Jun-30 18:33N 37°50' W 010°13'2 1.7
2015-Jun-30 17:33N 37°48' W 010°14'3 2.9
2015-Jun-30 16:33N 37°46' W 010°15'1211.6
2015-Jun-30 15:32N 37°36' W 010°24'1212.6
2015-Jun-30 14:33N 37°29' W 010°37'1313.2
2015-Jun-30 13:32N 37°39' W 010°47'4 4.2
2015-Jun-30 12:32N 37°42' W 010°51'1110.8
2015-Jun-30 11:33N 37°34' W 010°43'1110.6
2015-Jun-30 10:33N 37°26' W 010°34'1110.5
2015-Jun-30 09:34N 37°18' W 010°25'10 9.9
2015-Jun-30 08:33N 37°11' W 010°17'2 1.5
2015-Jun-30 07:34N 37°10' W 010°15'2 1.6
2015-Jun-30 06:34N 37°09' W 010°14'2 1.6
2015-Jun-30 05:34N 37°10' W 010°14'3 2.7
2015-Jun-30 04:33N 37°12' W 010°17'3 3.0
2015-Jun-30 03:33N 37°15' W 010°19'1 1.3
2015-Jun-30 02:34N 37°14' W 010°18'1 0.5
2015-Jun-30 01:33N 37°14' W 010°18'1 1.3
2015-Jun-30 00:33N 37°14' W 010°19'1 0.9
2015-Jun-29 23:33N 37°15' W 010°20'1 0.6
2015-Jun-29 22:34N 37°15' W 010°19'7 6.9
2015-Jun-29 21:33N 37°14' W 010°11'1413.7
2015-Jun-29 20:34N 37°28' W 010°10'3 2.7
2015-Jun-29 19:33N 37°31' W 010°10'2 2.2
2015-Jun-29 18:34N 37°33' W 010°10'2 2.3
2015-Jun-29 17:34N 37°35' W 010°10'0 0.3
2015-Jun-29 16:34N 37°35' W 010°10'5 4.6
2015-Jun-29 15:33N 37°31' W 010°09'1 1.4
2015-Jun-29 14:33N 37°32' W 010°09'1 0.9
2015-Jun-29 13:33N 37°31' W 010°09'1 0.9
2015-Jun-29 12:34N 37°31' W 010°08'3 2.6
2015-Jun-29 11:33N 37°33' W 010°09'3 2.6
2015-Jun-29 10:33N 37°36' W 010°10'2 2.1
2015-Jun-29 09:33N 37°38' W 010°10'1 0.9
2015-Jun-29 08:34N 37°37' W 010°11'1 1.0
2015-Jun-29 07:33N 37°37' W 010°10'1111.3
2015-Jun-29 06:33N 37°26' W 010°07'1211.7
2015-Jun-29 05:33N 37°14' W 010°03'1211.8
2015-Jun-29 04:34N 37°03' W 009°59'1211.6
2015-Jun-29 03:34N 36°52' W 009°56'1211.5
2015-Jun-29 02:34N 36°41' W 009°52'1111.4
2015-Jun-29 01:34N 36°30' W 009°48'1110.6
2015-Jun-29 00:34N 36°20' W 009°43'1212.5
2015-Jun-28 23:34N 36°18' W 009°28'1312.5
2015-Jun-28 22:34N 36°16' W 009°12'1312.6
2015-Jun-28 21:34N 36°14' W 008°57'1312.5
2015-Jun-28 20:33N 36°13' W 008°42'2612.3
2015-Jun-28 18:25N 36°09' W 008°09'1112.2
2015-Jun-28 17:33N 36°07' W 007°56'1212.3
2015-Jun-28 16:33N 36°06' W 007°41'1312.5
2015-Jun-28 15:33N 36°04' W 007°26'1412.8
2015-Jun-28 14:30N 36°02' W 007°09'1212.8
2015-Jun-28 13:34N 36°00' W 006°55'1212.3
2015-Jun-28 12:33N 36°01' W 006°39'1312.6
2015-Jun-28 11:33N 35°58' W 006°24'1912.8
2015-Jun-28 10:07N 35°58' W 006°01'813.6
2015-Jun-28 09:30N 35°58' W 005°51'1313.4
2015-Jun-28 08:32N 35°58' W 005°35'1111.8
2015-Jun-28 07:33N 36°01' W 005°22'3912.1
2015-Jun-28 04:18N 36°08' W 004°34'5812.0
2015-Jun-27 23:27N 36°17' W 003°22'1213.0
2015-Jun-27 22:33N 36°19' W 003°08'1212.5
2015-Jun-27 21:33N 36°21' W 002°53'1312.7
2015-Jun-27 20:33N 36°23' W 002°37'1713.3
2015-Jun-27 19:16N 36°26' W 002°16'912.7
2015-Jun-27 18:33N 36°30' W 002°06'1313.3
2015-Jun-27 17:33N 36°40' W 001°56'1313.2
2015-Jun-27 16:33N 36°50' W 001°45'1313.1
2015-Jun-27 15:33N 37°00' W 001°34'1313.2
2015-Jun-27 14:33N 37°11' W 001°24'1313.0
2015-Jun-27 13:33N 37°21' W 001°14'1312.9
2015-Jun-27 12:33N 37°30' W 001°03'5 0.2
2015-Jun-26 08:17N 37°34' W 000°58'1 2.0
2015-Jun-26 07:33N 37°34' W 001°00'3 2.8
2015-Jun-26 06:34N 37°31' W 001°02'1110.4
2015-Jun-26 05:32N 37°23' W 001°10'1612.0
2015-Jun-26 04:13N 37°10' W 001°23'2112.4
2015-Jun-26 02:33N 36°54' W 001°39'4012.0
2015-Jun-25 23:15N 36°23' W 002°10'2312.0
2015-Jun-25 21:18N 36°19' W 002°38'912.2
2015-Jun-25 20:33N 36°17' W 002°49'2612.8
2015-Jun-25 18:33N 36°13' W 003°20'8713.6
2015-Jun-25 12:08N 36°01' W 005°08'814.0
2015-Jun-25 11:33N 35°60' W 005°18'  

Dump ship's entire track history